Data for 08/05/2005

Time Sea-Level Adjusted Pressure Absolute Pressure Temperature Relative Humidity Dew Point   
(mb) (inHg) (mb) (inHg) (C) (F) (%) (C) (F)
00:05 1024 30.24 853 25.19 20.3 68.6 45 8.1 46.6
00:10 1024 30.24 853 25.19 20.2 68.4 45 8 46.4
00:15 1024 30.24 853 25.19 20.1 68.2 45 8 46.4
00:20 1024 30.24 853 25.19 20.3 68.5 45 8 46.5
00:25 1023 30.21 853 25.19 20.4 68.8 44 8 46.4
00:30 1023 30.21 853 25.19 20.6 69 44 8.2 46.7
00:35 1023 30.21 853 25.19 20.7 69.2 45 8.4 47.2
00:40 1023 30.21 853 25.19 20.6 69.1 45 8.4 47
00:45 1023 30.21 853 25.19 20.4 68.8 46 8.5 47.3
00:50 1023 30.21 853 25.19 20.1 68.1 47 8.6 47.5
00:55 1023 30.21 853 25.19 19.6 67.3 48 8.6 47.4
01:00 1023 30.21 853 25.19 19.4 66.8 49 8.4 47.2
01:05 1023 30.21 853 25.19 19.4 66.9 49 8.4 47.2
01:10 1023 30.21 853 25.19 19.3 66.8 48 8.3 46.9
01:15 1023 30.21 853 25.19 19.5 67.2 47 8.1 46.6
01:20 1023 30.21 853 25.19 19.7 67.4 48 8.5 47.3
01:25 1023 30.21 853 25.19 19.7 67.4 47 8.1 46.7
01:30 1023 30.21 853 25.19 19.7 67.4 47 8.2 46.7
01:35 1023 30.21 853 25.19 19.4 66.9 47 8 46.4
01:40 1024 30.24 853 25.19 19.3 66.7 47 7.9 46.3
01:45 1024 30.24 853 25.19 19.2 66.5 48 8.1 46.5
01:50 1024 30.24 853 25.19 18.9 65.9 50 8.4 47.1
01:55 1024 30.24 853 25.19 18.6 65.4 51 8.4 47.2
02:00 1024 30.24 853 25.19 18.2 64.8 52 8.3 47
02:05 1024 30.24 853 25.19 18.3 64.9 51 8.1 46.6
02:10 1024 30.24 853 25.19 18.2 64.8 49 7.3 45.2
02:15 1024 30.24 853 25.19 18.5 65.3 48 7.4 45.4
02:20 1024 30.24 853 25.19 18.5 65.3 47 7.1 44.7
02:25 1024 30.24 853 25.19 18.1 64.6 48 7.2 45
02:30 1024 30.24 853 25.19 18 64.4 49 7.1 44.8
02:35 1024 30.24 853 25.19 18 64.4 48 7.1 44.7
02:40 1024 30.24 853 25.19 17.8 64.1 49 7 44.6
02:45 1024 30.24 853 25.19 17.5 63.5 49 6.7 44.1
02:50 1024 30.24 853 25.19 17.9 64.2 48 6.8 44.2
02:55 1024 30.24 853 25.19 17.7 63.8 49 6.9 44.4
03:00 1024 30.24 853 25.19 17.4 63.2 49 6.6 43.8
03:05 1024 30.24 853 25.19 17.3 63.1 49 6.7 44
03:10 1024 30.24 853 25.19 17 62.6 50 6.5 43.8
03:15 1024 30.24 853 25.19 16.9 62.4 51 6.7 44
03:20 1024 30.24 853 25.19 16.8 62.2 48 5.9 42.7
03:25 1024 30.24 853 25.19 17.3 63.2 45 5.5 42
03:30 1024 30.24 853 25.19 17.4 63.3 47 6 42.8
03:35 1024 30.24 853 25.19 16.9 62.5 49 6.2 43.2
03:40 1024 30.24 853 25.19 16.4 61.5 51 6.3 43.4
03:45 1024 30.24 853 25.19 16.3 61.3 52 6.5 43.7
03:50 1024 30.24 853 25.19 15.9 60.7 53 6.4 43.6
03:55 1024 30.24 853 25.19 15.9 60.7 52 6.3 43.3
04:00 1024 30.24 853 25.19 16 60.8 52 6.2 43.2
04:05 1024 30.24 853 25.19 16 60.8 52 6.3 43.3
04:10 1024 30.24 853 25.19 16 60.8 52 6.2 43.2
04:15 1024 30.24 853 25.19 15.9 60.5 59 8 46.5
04:20 1024 30.24 853 25.19 15.6 60.1 52 5.9 42.7
04:25 1024 30.24 853 25.19 15.8 60.4 51 5.7 42.3
04:30 1024 30.24 853 25.19 15.9 60.6 51 5.9 42.5
04:35 1024 30.24 853 25.19 15.7 60.3 56 7 44.6
04:40 1024 30.24 853 25.19 15.8 60.4 52 6 42.9
04:45 1024 30.24 853 25.19 15.9 60.5 50 5.6 42.1
04:50 1024 30.24 853 25.19 16.2 61.1 51 6 42.9
04:55 1024 30.24 853 25.19 16.1 61 51 6 42.8
05:00 1024 30.24 853 25.19 16 60.7 51 6 42.9
05:05 1024 30.24 853 25.19 15.7 60.3 52 6 42.9
05:10 1024 30.24 853 25.19 15.5 59.8 51 5.5 41.9
05:15 1024 30.24 853 25.19 15.1 59.2 52 5.5 42
05:20 1024 30.24 853 25.19 15.2 59.4 52 5.5 41.8
05:25 1024 30.24 853 25.19 15.7 60.3 47 4.6 40.3
05:30 1024 30.24 853 25.19 15.6 60.2 47 4.5 40.2
05:35 1024 30.24 853 25.19 15 59 50 4.7 40.5
05:40 1024 30.24 853 25.19 14.4 57.9 55 5.4 41.8
05:45 1024 30.24 853 25.19 14.6 58.2 53 5.1 41.1
05:50 1024 30.24 853 25.19 14.8 58.6 53 5.2 41.4
05:55 1024 30.24 853 25.19 14.5 58.2 53 5 41
06:00 1024 30.24 853 25.19 14.5 58.1 53 5.1 41.1
06:05 1024 30.24 853 25.19 14.3 57.8 55 5.4 41.7
06:10 1024 30.24 853 25.19 14.5 58 55 5.5 42
06:15 1024 30.24 853 25.19 14.4 57.9 55 5.5 41.9
06:20 1024 30.24 853 25.19 14.4 57.9 58 6.2 43.2
06:25 1024 30.24 853 25.19 14.4 57.9 55 5.6 42
06:30 1024 30.24 853 25.19 14.3 57.7 56 5.7 42.2
06:35 1024 30.24 853 25.19 14.2 57.5 56 5.5 41.9
06:40 1024 30.24 853 25.19 14.4 57.9 61 7 44.6
06:45 1024 30.24 854 25.22 14.4 57.9 55 5.6 42.1
06:50 1024 30.24 854 25.22 14.4 57.9 55 5.5 42
06:55 1024 30.24 854 25.22 14.7 58.4 54 5.7 42.2
07:00 1024 30.24 854 25.22 15 59 52 5.4 41.7
07:05 1025 30.27 854 25.22 15.3 59.5 52 5.4 41.8
07:10 1025 30.27 854 25.22 15.9 60.6 49 5.2 41.3
07:15 1025 30.27 854 25.22 16.3 61.4 48 5.4 41.8
07:20 1025 30.27 854 25.22 16.6 61.9 49 5.8 42.5
07:25 1025 30.27 854 25.22 16.4 61.6 51 6.3 43.3
07:30 1025 30.27 854 25.22 16.4 61.6 57 7.9 46.2
07:35 1025 30.27 854 25.22 16.6 61.8 52 6.7 44
07:40 1025 30.27 854 25.22 16.4 61.5 53 6.9 44.4
07:45 1025 30.27 854 25.22 16.1 61.1 58 7.9 46.2
07:50 1025 30.27 854 25.22 16.2 61.1 54 6.9 44.5
07:55 1025 30.27 854 25.22 16.3 61.3 54 6.9 44.5
08:00 1025 30.27 854 25.22 16.5 61.7 52 6.7 44
08:05 1025 30.27 854 25.22 16.8 62.3 48 6 42.8
08:10 1025 30.27 854 25.22 17.3 63.2 48 6.2 43.2
08:15 1025 30.27 854 25.22 17.7 63.9 45 5.8 42.4
08:20 1025 30.27 854 25.22 18.2 64.7 46 6.6 44
08:25 1025 30.27 854 25.22 18.4 65.2 43 5.6 42.1
08:30 1025 30.27 854 25.22 18.9 65.9 47 7.5 45.5
08:35 1025 30.27 854 25.22 19.2 66.6 42 6.3 43.3
08:40 1025 30.27 854 25.22 19 66.2 47 7.7 45.9
08:45 1025 30.27 854 25.22 19.5 67.1 46 7.6 45.8
08:50 1025 30.27 854 25.22 20.1 68.1 44 7.7 45.8
08:55 1025 30.27 854 25.22 19.9 67.9 44 7.4 45.4
09:00 1025 30.27 854 25.22 20.5 68.8 45 8.3 47
09:05 1025 30.27 854 25.22 21 69.8 45 8.8 47.8
09:10 1025 30.27 854 25.22 21 69.7 46 9 48.2
09:15 1025 30.27 854 25.22 21.3 70.3 45 9 48.1
09:20 1025 30.27 854 25.22 21.6 70.8 43 8.6 47.6
09:25 1025 30.27 854 25.22 22.1 71.7 43 9 48.2
09:30 1025 30.27 854 25.22 23 73.4 39 8.6 47.5
09:35 1025 30.27 854 25.22 23.2 73.8 39 8.9 47.9
09:40 1025 30.27 854 25.22 23.4 74 39 8.8 47.8
09:45 1025 30.27 854 25.22 23.2 73.7 38 8.3 46.9
09:50 1025 30.27 854 25.22 23.6 74.4 36 7.8 46.1
09:55 1025 30.27 854 25.22 24 75.2 35 7.8 46.1
10:00 1025 30.27 854 25.22 24.1 75.4 34 7.3 45.2
10:05 1025 30.27 854 25.22 24.8 76.7 31 6.8 44.3
10:10 1025 30.27 854 25.22 25.1 77.1 34 8.5 47.3
10:15 1025 30.27 854 25.22 24.1 75.4 40 9.7 49.5
10:20 1025 30.27 854 25.22 24.4 76 36 8.5 47.3
10:25 1025 30.27 854 25.22 24.9 76.7 33 7.8 46
10:30 1025 30.27 854 25.22 25.4 77.8 30 7.1 44.7
10:35 1025 30.27 854 25.22 26.1 79 30 7.4 45.3
10:40 1025 30.27 854 25.22 26.3 79.4 30 7.6 45.7
10:45 1025 30.27 854 25.22 26.3 79.3 28 6.5 43.7
10:50 1025 30.27 854 25.22 26.5 79.8 28 7 44.6
10:55 1025 30.27 854 25.22 27.2 80.9 27 6.9 44.4
11:00 1025 30.27 854 25.22 27.4 81.4 27 7 44.7
11:05 1025 30.27 854 25.22 27.4 81.3 28 7.4 45.3
11:10 1025 30.27 854 25.22 27.3 81.2 27 6.8 44.3
11:15 1025 30.27 854 25.22 27.6 81.6 26 6.4 43.5
11:20 1024 30.24 854 25.22 27.3 81.1 26 6.3 43.3
11:25 1024 30.24 854 25.22 27.6 81.7 26 6.9 44.3
11:30 1024 30.24 854 25.22 28.3 83 25 7 44.5
11:35 1024 30.24 854 25.22 28.9 84.1 25 7.1 44.8
11:40 1024 30.24 854 25.22 29 84.1 22 5.3 41.6
11:45 1024 30.24 854 25.22 29.4 85 21 5.4 41.7
11:50 1024 30.24 854 25.22 29.2 84.5 24 6.7 44
11:55 1024 30.24 853 25.19 29.1 84.3 23 6 42.8
12:00 1024 30.24 853 25.19 29.2 84.5 23 6.4 43.6
12:05 1024 30.24 853 25.19 29.6 85.3 22 5.6 42.2
12:10 1024 30.24 853 25.19 30.1 86.2 19 4.2 39.6
12:15 1024 30.24 853 25.19 30 85.9 21 5.4 41.7
12:20 1024 30.24 853 25.19 29.7 85.5 21 5.3 41.5
12:25 1024 30.24 853 25.19 30 86 20 5.3 41.5
12:30 1024 30.24 853 25.19 29.5 85.1 21 5 40.9
12:35 1024 30.24 853 25.19 29 84.2 22 5.4 41.7
12:40 1024 30.24 853 25.19 29.2 84.5 20 4.4 39.9
12:45 1024 30.24 853 25.19 30.1 86.1 16 1.6 34.8
12:50 1024 30.24 853 25.19 30.4 86.7 18 3.7 38.7
12:55 1024 30.24 853 25.19 29.8 85.6 18 3.2 37.7
13:00 1024 30.24 853 25.19 29.4 85 19 3.7 38.6
13:05 1024 30.24 853 25.19 30.3 86.5 18 3.9 39.1
13:10 1024 30.24 853 25.19 30.3 86.6 16 1.8 35.3
13:15 1024 30.24 853 25.19 30.6 87.1 15 1.8 35.3
13:20 1024 30.24 853 25.19 30.1 86.2 16 1.7 35.1
13:25 1024 30.24 853 25.19 31.1 88 15 1.9 35.4
13:30 1024 30.24 853 25.19 31.5 88.6 15 1.9 35.4
13:35 1024 30.24 853 25.19 31 87.7 15 1.8 35.2
13:40 1023 30.21 853 25.19 31.2 88.2 14 1 33.9
13:45 1023 30.21 853 25.19 31.2 88.2 13 0.3 32.5
13:50 1023 30.21 853 25.19 31.8 89.2 15 2.3 36.1
13:55 1023 30.21 853 25.19 31.8 89.2 14 1 33.8
14:00 1023 30.21 853 25.19 32 89.6 14 2 35.6
14:05 1023 30.21 853 25.19 31.8 89.2 13 0.8 33.4
14:10 1023 30.21 852 25.16 30.6 87 14 0.3 32.6
14:15 1023 30.21 852 25.16 30.2 86.4 15 0.7 33.3
14:20 1023 30.21 852 25.16 30.3 86.6 15 0.9 33.7
14:25 1023 30.21 852 25.16 30.6 87 15 1.2 34.2
14:30 1023 30.21 852 25.16 30.3 86.6 15 1.2 34.1
14:35 1023 30.21 852 25.16 30.9 87.7 15 1.2 34.2
14:40 1023 30.21 852 25.16 31.4 88.5 15 1.6 34.9
14:45 1023 30.21 852 25.16 31 87.7 14 0.9 33.7
14:50 1023 30.21 852 25.16 30.9 87.7 15 1.6 34.9
14:55 1023 30.21 852 25.16 31.3 88.3 15 1.7 35
15:00 1023 30.21 852 25.16 31.3 88.4 14 1.2 34.2
15:05 1023 30.21 852 25.16 30.8 87.4 15 1.2 34.2
15:10 1023 30.21 852 25.16 30.8 87.4 15 1.8 35.2
15:15 1023 30.21 852 25.16 31.5 88.6 14 1.3 34.4
15:20 1023 30.21 852 25.16 32.3 90.1 14 1.5 34.7
15:25 1023 30.21 852 25.16 32.7 90.8 14 1.9 35.3
15:30 1023 30.21 852 25.16 32.1 89.8 14 2.1 35.8
15:35 1023 30.21 852 25.16 32.7 90.8 13 1.5 34.7
15:40 1022 30.18 852 25.16 32.8 91 14 2.5 36.4
15:45 1022 30.18 852 25.16 32.6 90.6 15 2.7 36.8
15:50 1022 30.18 852 25.16 32.7 90.8 14 2.1 35.8
15:55 1022 30.18 852 25.16 32.7 90.9 15 2.9 37.2
16:00 1022 30.18 851 25.13 32.8 91.1 14 2.2 36
16:05 1022 30.18 851 25.13 32.6 90.6 14 2.1 35.7
16:10 1022 30.18 851 25.13 32.5 90.5 14 1.7 35.1
16:15 1022 30.18 851 25.13 32.7 90.8 14 2.5 36.6
16:20 1022 30.18 851 25.13 32.3 90.1 14 1.9 35.4
16:25 1022 30.18 851 25.13 32.5 90.5 15 2.5 36.5
16:30 1022 30.18 851 25.13 32.6 90.7 14 2.2 35.9
16:35 1022 30.18 851 25.13 32.3 90.1 14 1.9 35.4
16:40 1022 30.18 851 25.13 32.8 91 14 2.1 35.8
16:45 1022 30.18 851 25.13 32.9 91.1 14 1.8 35.3
16:50 1022 30.18 851 25.13 32.7 90.9 14 2.2 35.9
16:55 1022 30.18 851 25.13 32.7 90.8 14 1.7 35.1
17:00 1022 30.18 851 25.13 32.6 90.6 14 1.7 35
17:05 1022 30.18 851 25.13 32.7 90.8 14 1.6 34.9
17:10 1022 30.18 851 25.13 32.5 90.5 14 2 35.7
17:15 1022 30.18 851 25.13 33 91.3 14 1.8 35.3
17:20 1022 30.18 851 25.13 33.4 92.1 13 1.9 35.4
17:25 1022 30.18 851 25.13 33.4 92.1 13 2.1 35.7
17:30 1021 30.15 851 25.13 33.5 92.3 12 1.1 34
17:35 1021 30.15 851 25.13 33.4 92.2 12 0.8 33.5
17:40 1021 30.15 851 25.13 33.3 91.9 13 1.4 34.5
17:45 1021 30.15 851 25.13 32.9 91.2 13 0.9 33.6
17:50 1021 30.15 851 25.13 33 91.4 12 0.7 33.3
17:55 1021 30.15 851 25.13 32.7 90.8 13 1.2 34.2
18:00 1021 30.15 850 25.1 32.9 91.1 13 0.8 33.5
18:05 1021 30.15 850 25.1 32.9 91.2 12 0.5 32.9
18:10 1021 30.15 850 25.1 33.1 91.5 12 0.8 33.4
18:15 1021 30.15 850 25.1 33.1 91.6 13 1.3 34.3
18:20 1021 30.15 850 25.1 32.8 91.1 14 2.4 36.3
18:25 1021 30.15 850 25.1 32.6 90.7 13 1.2 34.2
18:30 1021 30.15 850 25.1 32.6 90.7 13 0.8 33.5
18:35 1021 30.15 850 25.1 32.6 90.7 13 0.9 33.6
18:40 1021 30.15 850 25.1 32.4 90.3 13 0.6 33
18:45 1021 30.15 850 25.1 32.1 89.8 13 0.7 33.2
18:50 1021 30.15 850 25.1 31.8 89.2 13 0 32
18:55 1021 30.15 850 25.1 32 89.5 13 0.1 32.2
19:00 1021 30.15 850 25.1 31.6 88.9 14 1.3 34.3
19:05 1021 30.15 850 25.1 31.1 88 14 1 33.9
19:10 1021 30.15 850 25.1 30.9 87.6 15 1.4 34.6
19:15 1021 30.15 850 25.1 30.5 87 14 0.6 33.1
19:20 1021 30.15 850 25.1 30.4 86.8 15 0.8 33.4
19:25 1021 30.15 850 25.1 30.5 86.9 14 0.3 32.6
19:30 1021 30.15 850 25.1 30.6 87 14 0.2 32.4
19:35 1021 30.15 850 25.1 30.4 86.8 14 0.4 32.6
19:40 1021 30.15 850 25.1 30.4 86.7 14 0.1 32.2
19:45 1021 30.15 850 25.1 30.3 86.5 14 0.6 33.1
19:50 1021 30.15 850 25.1 30.1 86.1 22 6.3 43.4
19:55 1021 30.15 850 25.1 29.6 85.2 25 7.6 45.7
20:00 1021 30.15 850 25.1 29.2 84.6 23 6.3 43.4
20:05 1021 30.15 850 25.1 29 84.1 25 7.2 44.9
20:10 1021 30.15 850 25.1 28.8 83.8 26 7.5 45.5
20:15 1021 30.15 850 25.1 28.6 83.6 26 7.5 45.4
20:20 1021 30.15 850 25.1 28.2 82.8 28 8.4 47.2
20:25 1021 30.15 850 25.1 27.6 81.6 31 9.2 48.5
20:30 1021 30.15 850 25.1 26.7 80 33 9.5 49.1
20:35 1021 30.15 850 25.1 26 78.7 32 8.5 47.2
20:40 1021 30.15 850 25.1 25.4 77.6 32 7.5 45.5
20:45 1021 30.15 850 25.1 25 76.9 33 7.9 46.3
20:50 1021 30.15 850 25.1 24.5 76.2 34 8 46.5
20:55 1021 30.15 850 25.1 24.1 75.4 33 6.9 44.4
21:00 1021 30.15 850 25.1 23.8 74.8 38 8.9 48.1
21:05 1021 30.15 850 25.1 23.1 73.7 42 9.6 49.2
21:10 1021 30.15 850 25.1 22.5 72.5 41 8.6 47.5
21:15 1021 30.15 850 25.1 22.7 72.8 34 6.2 43.2
21:20 1021 30.15 850 25.1 23 73.4 34 6.5 43.8
21:25 1021 30.15 850 25.1 23.4 74.2 30 5.1 41.2
21:30 1021 30.15 850 25.1 23.4 74.2 31 5.4 41.7
21:35 1021 30.15 851 25.13 22.9 73.2 32 5.7 42.3
21:40 1021 30.15 851 25.13 22.1 71.8 33 5.2 41.3
21:45 1021 30.15 851 25.13 22 71.6 34 5.6 42.1
21:50 1022 30.18 851 25.13 22.1 71.7 32 5 40.9
21:55 1022 30.18 851 25.13 22.2 71.9 32 4.7 40.4
22:00 1022 30.18 851 25.13 22.1 71.8 35 6.3 43.4
22:05 1022 30.18 851 25.13 22.1 71.7 31 4.5 40.1
22:10 1022 30.18 851 25.13 22 71.6 31 4.5 40
22:15 1022 30.18 851 25.13 22 71.7 31 4.3 39.7
22:20 1022 30.18 851 25.13 22.1 71.7 31 4.1 39.4
22:25 1022 30.18 851 25.13 22.1 71.8 30 4.1 39.4
22:30 1022 30.18 851 25.13 22.1 71.7 30 4 39.1
22:35 1022 30.18 851 25.13 22 71.6 31 4.2 39.6
22:40 1022 30.18 851 25.13 21.8 71.3 30 3.7 38.7
22:45 1022 30.18 851 25.13 22.3 72.1 28 3.2 37.8
22:50 1022 30.18 851 25.13 22.4 72.4 28 3.3 38
22:55 1022 30.18 851 25.13 22.4 72.3 28 3 37.4
23:00 1022 30.18 851 25.13 22.3 72.1 32 5 41.1
23:05 1022 30.18 851 25.13 22 71.5 32 4.6 40.3
23:10 1022 30.18 851 25.13 21.2 70.2 34 4.9 40.9
23:15 1022 30.18 851 25.13 20.7 69.2 38 6 42.9
23:20 1022 30.18 851 25.13 20.6 69 35 4.7 40.5
23:25 1022 30.18 851 25.13 20.3 68.5 36 4.8 40.7
23:30 1022 30.18 851 25.13 19.9 67.9 42 6.9 44.4
23:35 1022 30.18 851 25.13 19.7 67.5 38 5.3 41.5
23:40 1022 30.18 851 25.13 19.6 67.2 39 5.2 41.4
23:45 1022 30.18 851 25.13 19.4 66.8 40 5.5 42
23:50 1022 30.18 851 25.13 19.3 66.7 39 5.3 41.5
23:55 1022 30.18 851 25.13 19.4 66.9 37 4.5 40.2
24:00 1022 30.18 851 25.13 20 67.9 34 3.6 38.6